createdAt,value
2023-05-25T00:00:39.932Z,988.05
2023-05-25T00:01:36.934Z,988.08
2023-05-25T00:02:35.990Z,988.09
2023-05-25T00:03:35.980Z,988.06
2023-05-25T00:04:35.916Z,988.07
2023-05-25T00:05:35.869Z,988.04
2023-05-25T00:06:35.854Z,988.00
2023-05-25T00:07:35.859Z,988.05
2023-05-25T00:08:35.829Z,988.05
2023-05-25T00:09:35.810Z,987.98
2023-05-25T00:10:35.810Z,988.00
2023-05-25T00:11:35.822Z,988.06
2023-05-25T00:12:35.783Z,988.04
2023-05-25T00:13:35.780Z,988.00
2023-05-25T00:14:35.757Z,988.09
2023-05-25T00:15:35.756Z,988.03
2023-05-25T00:16:35.788Z,988.04
2023-05-25T00:17:35.796Z,988.00
2023-05-25T00:18:35.730Z,987.99
2023-05-25T00:19:35.716Z,987.98
2023-05-25T00:20:35.810Z,987.98
2023-05-25T00:21:35.733Z,987.99
2023-05-25T00:22:35.699Z,988.01
2023-05-25T00:23:35.687Z,987.95
2023-05-25T00:24:35.678Z,987.95
2023-05-25T00:25:35.650Z,987.98
2023-05-25T00:26:35.626Z,988.01
2023-05-25T00:27:35.647Z,987.99
2023-05-25T00:28:35.612Z,987.97
2023-05-25T00:29:35.628Z,987.99
2023-05-25T00:30:35.617Z,988.00
2023-05-25T00:31:35.836Z,987.99
2023-05-25T00:32:35.600Z,987.98
2023-05-25T00:33:35.568Z,987.98
2023-05-25T00:34:35.554Z,987.97
2023-05-25T00:35:35.578Z,987.96
2023-05-25T00:36:35.524Z,987.97
2023-05-25T00:37:35.525Z,987.96
2023-05-25T00:38:35.517Z,987.95
2023-05-25T00:39:35.505Z,987.97
2023-05-25T00:40:35.477Z,987.96
2023-05-25T00:41:35.494Z,987.99
2023-05-25T00:42:35.521Z,987.97
2023-05-25T00:43:35.472Z,987.97
2023-05-25T00:44:35.481Z,988.00
2023-05-25T00:45:35.469Z,987.99
2023-05-25T00:46:35.453Z,988.01
2023-05-25T00:47:35.428Z,987.96
2023-05-25T00:48:35.410Z,987.99
2023-05-25T00:49:35.393Z,988.01
2023-05-25T00:50:35.380Z,987.93
2023-05-25T00:51:35.372Z,987.96
2023-05-25T00:52:35.381Z,987.96
2023-05-25T00:53:35.373Z,987.88
2023-05-25T00:54:35.327Z,987.95
2023-05-25T00:55:35.332Z,987.93
2023-05-25T00:56:35.300Z,987.91
2023-05-25T00:57:35.318Z,987.95
2023-05-25T00:58:35.313Z,987.88
2023-05-25T00:59:35.314Z,987.83
2023-05-25T01:00:35.292Z,987.87
2023-05-25T01:01:35.276Z,987.82
2023-05-25T01:02:35.311Z,987.78
2023-05-25T01:03:35.332Z,987.83
2023-05-25T01:04:35.251Z,987.84
2023-05-25T01:05:35.221Z,987.86
2023-05-25T01:06:35.210Z,987.85
2023-05-25T01:07:35.200Z,987.85
2023-05-25T01:08:35.185Z,987.82
2023-05-25T01:09:35.173Z,987.83
2023-05-25T01:10:35.156Z,987.83
2023-05-25T01:11:35.157Z,987.79
2023-05-25T01:12:35.160Z,987.77
2023-05-25T01:13:35.141Z,987.80
2023-05-25T01:14:35.111Z,987.77
2023-05-25T01:15:35.119Z,987.78
2023-05-25T01:16:35.132Z,987.76
2023-05-25T01:17:35.167Z,987.83
2023-05-25T01:18:35.074Z,987.83
2023-05-25T01:19:35.110Z,987.80
2023-05-25T01:20:35.135Z,987.73
2023-05-25T01:21:35.065Z,987.72
2023-05-25T01:22:35.049Z,987.75
2023-05-25T01:23:35.053Z,987.76
2023-05-25T01:24:35.006Z,987.77
2023-05-25T01:25:35.021Z,987.75
2023-05-25T01:26:34.994Z,987.81
2023-05-25T01:27:34.986Z,987.78
2023-05-25T01:28:34.970Z,987.81
2023-05-25T01:29:34.960Z,987.81
2023-05-25T01:30:34.967Z,987.79
2023-05-25T01:31:34.965Z,987.85
2023-05-25T01:32:34.989Z,987.76
2023-05-25T01:33:34.898Z,987.79
2023-05-25T01:34:55.958Z,987.79
2023-05-25T01:35:35.007Z,987.76
2023-05-25T01:36:34.928Z,987.79
2023-05-25T01:37:34.878Z,987.78
2023-05-25T01:38:34.881Z,987.78
2023-05-25T01:39:34.858Z,987.81
2023-05-25T01:40:34.865Z,987.81
2023-05-25T01:41:34.860Z,987.77
2023-05-25T01:42:35.143Z,987.83
2023-05-25T01:43:34.812Z,987.86
2023-05-25T01:44:34.818Z,987.81
2023-05-25T01:45:34.779Z,987.83
2023-05-25T01:46:34.917Z,987.82
2023-05-25T01:47:34.798Z,987.87
2023-05-25T01:48:34.755Z,987.84
2023-05-25T01:49:34.739Z,987.92
2023-05-25T01:50:34.764Z,987.88
2023-05-25T01:51:34.726Z,987.85
2023-05-25T01:52:34.863Z,987.87
2023-05-25T01:53:34.700Z,987.86
2023-05-25T01:54:34.693Z,987.89
2023-05-25T01:55:34.718Z,987.85
2023-05-25T01:56:34.686Z,987.85
2023-05-25T01:57:34.672Z,987.87
2023-05-25T01:58:34.657Z,987.83
2023-05-25T01:59:34.628Z,987.83
2023-05-25T02:00:34.658Z,987.84
2023-05-25T02:01:34.675Z,987.87
2023-05-25T02:02:34.634Z,987.82
2023-05-25T02:03:34.581Z,987.80
2023-05-25T02:04:34.669Z,987.82
2023-05-25T02:05:34.598Z,987.83
2023-05-25T02:06:34.581Z,987.87
2023-05-25T02:07:34.558Z,987.82
2023-05-25T02:08:34.551Z,987.85
2023-05-25T02:09:34.645Z,987.87
2023-05-25T02:10:34.524Z,987.85
2023-05-25T02:11:34.532Z,987.84
2023-05-25T02:12:34.510Z,987.78
2023-05-25T02:13:36.212Z,987.85
2023-05-25T02:14:34.473Z,987.83
2023-05-25T02:15:34.535Z,987.81
2023-05-25T02:16:34.559Z,987.81
2023-05-25T02:17:34.452Z,987.84
2023-05-25T02:18:34.467Z,987.76
2023-05-25T02:19:34.423Z,987.73
2023-05-25T02:20:34.451Z,987.79
2023-05-25T02:21:34.416Z,987.72
2023-05-25T02:22:34.396Z,987.71
2023-05-25T02:23:34.393Z,987.66
2023-05-25T02:24:34.380Z,987.74
2023-05-25T02:25:34.359Z,987.65
2023-05-25T02:26:34.364Z,987.67
2023-05-25T02:27:34.307Z,987.64
2023-05-25T02:28:34.336Z,987.63
2023-05-25T02:29:34.309Z,987.60
2023-05-25T02:30:34.300Z,987.65
2023-05-25T02:31:34.365Z,987.62
2023-05-25T02:32:34.332Z,987.59
2023-05-25T02:33:34.419Z,987.58
2023-05-25T02:34:34.273Z,987.71
2023-05-25T02:35:34.256Z,987.61
2023-05-25T02:36:34.256Z,987.65
2023-05-25T02:37:34.232Z,987.63
2023-05-25T02:38:34.238Z,987.57
2023-05-25T02:39:34.261Z,987.71
2023-05-25T02:40:34.182Z,987.66
2023-05-25T02:41:34.186Z,987.67
2023-05-25T02:42:34.172Z,987.66
2023-05-25T02:43:34.169Z,987.66
2023-05-25T02:44:34.168Z,987.70
2023-05-25T02:45:34.129Z,987.62
2023-05-25T02:46:34.170Z,987.73
2023-05-25T02:47:34.184Z,987.65
2023-05-25T02:48:34.097Z,987.69
2023-05-25T02:49:34.105Z,987.65
2023-05-25T02:50:34.069Z,987.66
2023-05-25T02:51:34.078Z,987.66
2023-05-25T02:52:34.051Z,987.71
2023-05-25T02:53:34.046Z,987.67
2023-05-25T02:54:34.040Z,987.70
2023-05-25T02:55:34.032Z,987.75
2023-05-25T02:56:34.038Z,987.75
2023-05-25T02:57:34.011Z,987.79
2023-05-25T02:58:34.022Z,987.81
2023-05-25T02:59:34.005Z,987.79
2023-05-25T03:00:34.033Z,987.83
2023-05-25T03:01:34.004Z,987.85
2023-05-25T03:02:33.962Z,987.79
2023-05-25T03:03:34.010Z,987.82
2023-05-25T03:04:33.940Z,987.82
2023-05-25T03:05:33.940Z,987.83
2023-05-25T03:06:33.903Z,987.85
2023-05-25T03:07:33.890Z,987.76
2023-05-25T03:08:33.913Z,987.83
2023-05-25T03:09:33.870Z,987.80
2023-05-25T03:10:33.886Z,987.84
2023-05-25T03:11:33.858Z,987.80
2023-05-25T03:12:33.834Z,987.85
2023-05-25T03:13:33.828Z,987.85
2023-05-25T03:14:33.840Z,987.80
2023-05-25T03:15:33.806Z,987.91
2023-05-25T03:16:33.802Z,987.88
2023-05-25T03:17:33.827Z,987.92
2023-05-25T03:18:33.792Z,988.01
2023-05-25T03:19:33.761Z,987.94
2023-05-25T03:20:33.844Z,988.06
2023-05-25T03:21:33.744Z,988.06
2023-05-25T03:22:33.739Z,988.07
2023-05-25T03:23:33.721Z,988.04
2023-05-25T03:24:33.733Z,988.03
2023-05-25T03:25:33.685Z,988.03
2023-05-25T03:26:33.716Z,988.00
2023-05-25T03:27:33.815Z,988.03
2023-05-25T03:28:33.667Z,988.05
2023-05-25T03:29:33.649Z,987.98
2023-05-25T03:30:33.658Z,988.00
2023-05-25T03:31:33.671Z,988.01
2023-05-25T03:32:33.703Z,988.00
2023-05-25T03:33:33.601Z,987.97
2023-05-25T03:34:33.630Z,987.96
2023-05-25T03:35:33.601Z,987.98
2023-05-25T03:36:33.596Z,988.00
2023-05-25T03:37:33.569Z,987.96
2023-05-25T03:38:33.563Z,987.95
2023-05-25T03:39:33.551Z,987.99
2023-05-25T03:40:33.560Z,987.98
2023-05-25T03:41:33.544Z,988.01
2023-05-25T03:42:33.545Z,987.98
2023-05-25T03:43:33.555Z,988.01
2023-05-25T03:44:33.505Z,987.98
2023-05-25T03:45:33.497Z,988.02
2023-05-25T03:46:33.563Z,988.02
2023-05-25T03:47:33.531Z,987.98
2023-05-25T03:48:33.503Z,987.99
2023-05-25T03:49:33.429Z,988.04
2023-05-25T03:50:33.428Z,988.04
2023-05-25T03:51:33.419Z,988.05
2023-05-25T03:52:33.413Z,988.07
2023-05-25T03:53:33.438Z,988.08
2023-05-25T03:54:33.373Z,988.09
2023-05-25T03:55:33.400Z,988.07
2023-05-25T03:56:33.372Z,988.09
2023-05-25T03:57:33.359Z,988.15
2023-05-25T03:58:33.361Z,988.14
2023-05-25T03:59:33.350Z,988.15
2023-05-25T04:00:33.325Z,988.16
2023-05-25T04:01:33.341Z,988.19
2023-05-25T04:02:33.401Z,988.21
2023-05-25T04:03:33.620Z,988.19
2023-05-25T04:04:33.324Z,988.13
2023-05-25T04:05:33.272Z,988.21
2023-05-25T04:06:33.254Z,988.18
2023-05-25T04:07:33.267Z,988.19
2023-05-25T04:08:33.251Z,988.21
2023-05-25T04:09:33.231Z,988.27
2023-05-25T04:10:33.213Z,988.21
2023-05-25T04:11:33.203Z,988.24
2023-05-25T04:12:33.205Z,988.29
2023-05-25T04:13:33.170Z,988.26
2023-05-25T04:14:33.235Z,988.25
2023-05-25T04:15:33.163Z,988.29
2023-05-25T04:16:33.256Z,988.26
2023-05-25T04:17:33.197Z,988.28
2023-05-25T04:18:33.159Z,988.31
2023-05-25T04:19:33.122Z,988.32
2023-05-25T04:20:33.197Z,988.30
2023-05-25T04:21:33.107Z,988.34
2023-05-25T04:22:33.106Z,988.32
2023-05-25T04:23:33.090Z,988.30
2023-05-25T04:24:33.065Z,988.35
2023-05-25T04:25:33.063Z,988.36
2023-05-25T04:26:33.039Z,988.35
2023-05-25T04:27:33.045Z,988.35
2023-05-25T04:28:33.040Z,988.33
2023-05-25T04:29:33.032Z,988.27
2023-05-25T04:30:32.995Z,988.33
2023-05-25T04:31:33.099Z,988.28
2023-05-25T04:32:33.017Z,988.31
2023-05-25T04:33:32.954Z,988.24
2023-05-25T04:34:32.945Z,988.23
2023-05-25T04:35:32.975Z,988.26
2023-05-25T04:36:32.947Z,988.28
2023-05-25T04:37:32.933Z,988.31
2023-05-25T04:38:32.895Z,988.30
2023-05-25T04:39:32.975Z,988.31
2023-05-25T04:40:32.888Z,988.36
2023-05-25T04:41:32.887Z,988.38
2023-05-25T04:42:32.853Z,988.34
2023-05-25T04:43:32.868Z,988.38
2023-05-25T04:44:32.841Z,988.40
2023-05-25T04:45:32.906Z,988.37
2023-05-25T04:46:32.894Z,988.41
2023-05-25T04:47:32.861Z,988.38
2023-05-25T04:48:32.820Z,988.45
2023-05-25T04:49:32.803Z,988.44
2023-05-25T04:50:32.772Z,988.45
2023-05-25T04:51:32.770Z,988.39
2023-05-25T04:52:32.774Z,988.43
2023-05-25T04:53:32.747Z,988.43
2023-05-25T04:54:32.724Z,988.40
2023-05-25T04:55:32.727Z,988.41
2023-05-25T04:56:32.729Z,988.40
2023-05-25T04:57:32.717Z,988.47
2023-05-25T04:58:32.718Z,988.41
2023-05-25T04:59:32.688Z,988.47
2023-05-25T05:00:32.658Z,988.40
2023-05-25T05:01:32.708Z,988.46
2023-05-25T05:02:32.675Z,988.40
2023-05-25T05:03:32.709Z,988.47
2023-05-25T05:04:32.627Z,988.40
2023-05-25T05:05:32.608Z,988.40
2023-05-25T05:06:32.619Z,988.42
2023-05-25T05:07:32.603Z,988.39
2023-05-25T05:08:32.586Z,988.47
2023-05-25T05:09:32.577Z,988.43
2023-05-25T05:10:32.557Z,988.43
2023-05-25T05:11:32.573Z,988.43
2023-05-25T05:12:32.532Z,988.46
2023-05-25T05:13:32.533Z,988.50
2023-05-25T05:14:32.534Z,988.52
2023-05-25T05:15:32.509Z,988.53
2023-05-25T05:16:32.529Z,988.56
2023-05-25T05:17:32.534Z,988.60
2023-05-25T05:18:32.484Z,988.52
2023-05-25T05:19:32.474Z,988.62
2023-05-25T05:20:32.479Z,988.64
2023-05-25T05:21:32.470Z,988.62
2023-05-25T05:22:32.446Z,988.66
2023-05-25T05:23:32.451Z,988.68
2023-05-25T05:24:32.426Z,988.72
2023-05-25T05:25:32.418Z,988.72
2023-05-25T05:26:44.160Z,988.77
2023-05-25T05:27:33.401Z,988.78
2023-05-25T05:28:32.389Z,988.82
2023-05-25T05:29:32.363Z,988.77
2023-05-25T05:30:32.449Z,988.75
2023-05-25T05:31:32.374Z,988.81
2023-05-25T05:32:32.413Z,988.81
2023-05-25T05:33:32.694Z,988.87
2023-05-25T05:34:32.894Z,988.82
2023-05-25T05:35:32.885Z,988.78
2023-05-25T05:36:41.855Z,988.84
2023-05-25T05:37:33.261Z,988.81
2023-05-25T05:38:32.593Z,988.77
2023-05-25T05:39:32.292Z,988.77
2023-05-25T05:40:32.266Z,988.73
2023-05-25T05:41:32.222Z,988.70
2023-05-25T05:42:32.252Z,988.75
2023-05-25T05:43:32.215Z,988.77
2023-05-25T05:44:32.222Z,988.78
2023-05-25T05:45:32.192Z,988.78
2023-05-25T05:46:32.194Z,988.82
2023-05-25T05:47:32.200Z,988.82
2023-05-25T05:48:32.153Z,988.84
2023-05-25T05:49:32.206Z,988.81
2023-05-25T05:50:32.111Z,988.80
2023-05-25T05:51:32.141Z,988.79
2023-05-25T05:52:32.129Z,988.81
2023-05-25T05:53:32.114Z,988.79
2023-05-25T05:54:32.123Z,988.83
2023-05-25T05:55:32.074Z,988.88
2023-05-25T05:56:32.078Z,988.87
2023-05-25T05:57:32.062Z,988.92
2023-05-25T05:58:32.043Z,988.90
2023-05-25T05:59:32.048Z,988.93
2023-05-25T06:00:32.074Z,988.94
2023-05-25T06:01:32.153Z,989.02
2023-05-25T06:02:32.109Z,988.93
2023-05-25T06:03:32.436Z,988.96
2023-05-25T06:04:32.405Z,988.96
2023-05-25T06:05:32.209Z,989.00
2023-05-25T06:06:31.957Z,989.05
2023-05-25T06:07:31.977Z,989.04
2023-05-25T06:08:31.929Z,989.08
2023-05-25T06:09:31.943Z,989.04
2023-05-25T06:10:31.900Z,989.09
2023-05-25T06:11:31.916Z,989.07
2023-05-25T06:12:31.904Z,989.07
2023-05-25T06:13:31.891Z,989.04
2023-05-25T06:14:32.847Z,989.10
2023-05-25T06:15:32.504Z,989.07
2023-05-25T06:16:31.922Z,989.09
2023-05-25T06:17:31.876Z,989.08
2023-05-25T06:18:31.827Z,989.12
2023-05-25T06:19:32.534Z,989.12
2023-05-25T06:20:31.858Z,989.15
2023-05-25T06:21:31.817Z,989.12
2023-05-25T06:22:31.843Z,989.20
2023-05-25T06:23:31.784Z,989.09
2023-05-25T06:24:31.761Z,989.10
2023-05-25T06:25:31.753Z,989.04
2023-05-25T06:26:31.742Z,989.11
2023-05-25T06:27:31.721Z,989.02
2023-05-25T06:28:31.708Z,989.01
2023-05-25T06:29:31.710Z,989.05
2023-05-25T06:30:31.864Z,989.02
2023-05-25T06:31:31.734Z,989.08
2023-05-25T06:32:31.712Z,989.00
2023-05-25T06:33:31.703Z,989.03
2023-05-25T06:34:31.768Z,989.03
2023-05-25T06:35:31.654Z,989.06
2023-05-25T06:36:32.232Z,989.05
2023-05-25T06:37:31.639Z,989.07
2023-05-25T06:38:31.605Z,989.07
2023-05-25T06:39:31.621Z,989.07
2023-05-25T06:40:31.599Z,989.09
2023-05-25T06:41:31.582Z,989.11
2023-05-25T06:42:31.579Z,989.10
2023-05-25T06:43:31.566Z,989.06
2023-05-25T06:44:31.557Z,989.03
2023-05-25T06:45:31.541Z,989.07
2023-05-25T06:46:31.647Z,989.07
2023-05-25T06:47:31.601Z,989.11
2023-05-25T06:48:31.486Z,989.03
2023-05-25T06:49:31.521Z,989.09
2023-05-25T06:50:31.490Z,989.10
2023-05-25T06:51:31.462Z,989.11
2023-05-25T06:52:31.473Z,989.13
2023-05-25T06:53:31.462Z,989.21
2023-05-25T06:54:31.437Z,989.16
2023-05-25T06:55:31.434Z,989.20
2023-05-25T06:56:31.420Z,989.25
2023-05-25T06:57:31.414Z,989.23
2023-05-25T06:58:31.393Z,989.16
2023-05-25T06:59:31.445Z,989.24
2023-05-25T07:00:31.382Z,989.18
2023-05-25T07:01:31.425Z,989.21
2023-05-25T07:02:31.373Z,989.22
2023-05-25T07:03:31.350Z,989.17
2023-05-25T07:04:31.354Z,989.19
2023-05-25T07:05:31.400Z,989.28
2023-05-25T07:06:31.323Z,989.27
2023-05-25T07:07:31.290Z,989.30
2023-05-25T07:08:31.287Z,989.34
2023-05-25T07:09:31.304Z,989.31
2023-05-25T07:10:31.269Z,989.30
2023-05-25T07:11:31.265Z,989.30
2023-05-25T07:12:31.275Z,989.32
2023-05-25T07:13:31.236Z,989.28
2023-05-25T07:14:31.230Z,989.29
2023-05-25T07:15:31.229Z,989.30
2023-05-25T07:16:31.250Z,989.15
2023-05-25T07:17:31.196Z,989.23
2023-05-25T07:18:31.173Z,989.22
2023-05-25T07:19:31.185Z,989.22
2023-05-25T07:20:31.206Z,989.15
2023-05-25T07:21:31.175Z,989.17
2023-05-25T07:22:31.142Z,989.18
2023-05-25T07:23:31.137Z,989.32
2023-05-25T07:24:31.128Z,989.32
2023-05-25T07:25:31.131Z,989.30
2023-05-25T07:26:31.131Z,989.30
2023-05-25T07:27:31.098Z,989.33
2023-05-25T07:28:31.064Z,989.34
2023-05-25T07:29:31.058Z,989.31
2023-05-25T07:30:31.071Z,989.30
2023-05-25T07:31:31.074Z,989.27
2023-05-25T07:32:31.084Z,989.31
2023-05-25T07:33:31.040Z,989.39
2023-05-25T07:34:30.993Z,989.31
2023-05-25T07:35:31.017Z,989.32
2023-05-25T07:36:30.997Z,989.32
2023-05-25T07:37:30.977Z,989.34
2023-05-25T07:38:30.963Z,989.32
2023-05-25T07:39:31.906Z,989.29
2023-05-25T07:40:30.965Z,989.24
2023-05-25T07:41:30.926Z,989.27
2023-05-25T07:42:30.916Z,989.26
2023-05-25T07:43:30.908Z,989.35
2023-05-25T07:44:30.898Z,989.33
2023-05-25T07:45:32.860Z,989.35
2023-05-25T07:46:31.001Z,989.32
2023-05-25T07:47:30.941Z,989.36
2023-05-25T07:48:30.859Z,989.36
2023-05-25T07:49:30.852Z,989.39
2023-05-25T07:50:31.928Z,989.42
2023-05-25T07:51:30.849Z,989.39
2023-05-25T07:52:30.882Z,989.41
2023-05-25T07:53:30.798Z,989.42
2023-05-25T07:54:30.823Z,989.36
2023-05-25T07:55:30.802Z,989.40
2023-05-25T07:56:31.301Z,989.35
2023-05-25T07:57:30.789Z,989.35
2023-05-25T07:58:31.436Z,989.37
2023-05-25T07:59:30.756Z,989.32
2023-05-25T08:00:30.858Z,989.34
2023-05-25T08:01:30.786Z,989.35
2023-05-25T08:02:32.862Z,989.36
2023-05-25T08:03:44.312Z,989.34
2023-05-25T08:04:32.445Z,989.32
2023-05-25T08:05:30.707Z,989.37
2023-05-25T08:06:31.035Z,989.24
2023-05-25T08:07:30.682Z,989.30
2023-05-25T08:08:31.405Z,989.25
2023-05-25T08:09:30.656Z,989.30
2023-05-25T08:10:31.362Z,989.28
2023-05-25T08:11:30.624Z,989.30
2023-05-25T08:12:46.648Z,989.21
2023-05-25T08:13:31.593Z,989.23
2023-05-25T08:14:30.682Z,989.27
2023-05-25T08:15:30.565Z,989.17
2023-05-25T08:16:30.592Z,989.19
2023-05-25T08:17:30.598Z,989.19
2023-05-25T08:18:30.532Z,989.17
2023-05-25T08:19:30.524Z,989.21
2023-05-25T08:20:30.571Z,989.24
2023-05-25T08:21:31.372Z,989.20
2023-05-25T08:22:30.505Z,989.21
2023-05-25T08:23:30.481Z,989.20
2023-05-25T08:24:30.466Z,989.24
2023-05-25T08:25:30.477Z,989.22
2023-05-25T08:26:45.450Z,989.22
2023-05-25T08:27:34.426Z,989.29
2023-05-25T08:28:30.431Z,989.25
2023-05-25T08:29:30.402Z,989.31
2023-05-25T08:30:30.414Z,989.35
2023-05-25T08:31:30.513Z,989.33
2023-05-25T08:32:30.387Z,989.30
2023-05-25T08:33:30.361Z,989.38
2023-05-25T08:34:30.365Z,989.37
2023-05-25T08:35:30.348Z,989.34
2023-05-25T08:36:30.346Z,989.35
2023-05-25T08:37:30.313Z,989.33
2023-05-25T08:38:30.315Z,989.33
2023-05-25T08:39:30.898Z,989.31
2023-05-25T08:40:30.304Z,989.34
2023-05-25T08:41:30.261Z,989.42
2023-05-25T08:42:30.257Z,989.43
2023-05-25T08:43:30.268Z,989.45
2023-05-25T08:44:30.253Z,989.46
2023-05-25T08:45:49.982Z,989.47
2023-05-25T08:46:31.259Z,989.50
2023-05-25T08:47:30.232Z,989.42
2023-05-25T08:48:39.901Z,989.47
2023-05-25T08:49:31.260Z,989.46
2023-05-25T08:50:30.187Z,989.46
2023-05-25T08:51:30.180Z,989.45
2023-05-25T08:52:30.156Z,989.45
2023-05-25T08:53:30.160Z,989.42
2023-05-25T08:54:30.179Z,989.31
2023-05-25T08:55:30.117Z,989.33
2023-05-25T08:56:30.134Z,989.38
2023-05-25T08:57:30.086Z,989.37
2023-05-25T08:58:30.089Z,989.41
2023-05-25T08:59:30.085Z,989.31
2023-05-25T09:00:30.071Z,989.31
2023-05-25T09:01:30.075Z,989.30
2023-05-25T09:02:30.167Z,989.32
2023-05-25T09:03:30.092Z,989.34
2023-05-25T09:04:30.032Z,989.34
2023-05-25T09:05:30.301Z,989.32
2023-05-25T09:06:30.007Z,989.33
2023-05-25T09:07:30.000Z,989.29
2023-05-25T09:08:29.997Z,989.31
2023-05-25T09:09:29.969Z,989.16
2023-05-25T09:10:29.966Z,989.21
2023-05-25T09:11:38.540Z,989.20
2023-05-25T09:12:30.953Z,989.17
2023-05-25T09:13:29.925Z,989.17
2023-05-25T09:14:29.917Z,989.25
2023-05-25T09:15:29.908Z,989.22
2023-05-25T09:16:29.970Z,989.23
2023-05-25T09:17:29.916Z,989.23
2023-05-25T09:18:29.939Z,989.20
2023-05-25T09:19:29.882Z,989.16
2023-05-25T09:20:29.901Z,989.22
2023-05-25T09:21:29.830Z,989.26
2023-05-25T09:22:29.838Z,989.22
2023-05-25T09:23:29.832Z,989.21
2023-05-25T09:24:29.801Z,989.21
2023-05-25T09:25:29.788Z,989.24
2023-05-25T09:26:29.812Z,989.21
2023-05-25T09:27:29.765Z,989.24
2023-05-25T09:28:29.801Z,989.18
2023-05-25T09:29:29.786Z,989.19
2023-05-25T09:30:29.750Z,989.21
2023-05-25T09:31:29.779Z,989.23
2023-05-25T09:32:29.862Z,989.28
2023-05-25T09:33:29.720Z,989.35
2023-05-25T09:34:29.729Z,989.28
2023-05-25T09:35:29.700Z,989.21
2023-05-25T09:36:29.748Z,989.33
2023-05-25T09:37:29.822Z,989.28
2023-05-25T09:38:30.102Z,989.26
2023-05-25T09:39:29.733Z,989.32
2023-05-25T09:40:29.667Z,989.33
2023-05-25T09:41:30.598Z,989.29
2023-05-25T09:42:29.634Z,989.36
2023-05-25T09:43:41.373Z,989.29
2023-05-25T09:44:30.600Z,989.34
2023-05-25T09:45:29.599Z,989.34
2023-05-25T09:46:29.657Z,989.37
2023-05-25T09:47:29.609Z,989.34
2023-05-25T09:48:29.581Z,989.29
2023-05-25T09:49:29.591Z,989.30
2023-05-25T09:50:29.584Z,989.33
2023-05-25T09:51:29.510Z,989.32
2023-05-25T09:52:29.562Z,989.32
2023-05-25T09:53:29.528Z,989.36
2023-05-25T09:54:29.513Z,989.26
2023-05-25T09:55:40.044Z,989.33
2023-05-25T09:56:30.470Z,989.30
2023-05-25T09:57:29.442Z,989.36
2023-05-25T09:58:29.477Z,989.32
2023-05-25T09:59:29.448Z,989.31
2023-05-25T10:00:29.420Z,989.31
2023-05-25T10:01:29.483Z,989.38
2023-05-25T10:02:29.430Z,989.27
2023-05-25T10:03:29.382Z,989.26
2023-05-25T10:04:29.398Z,989.26
2023-05-25T10:05:29.403Z,989.28
2023-05-25T10:06:29.387Z,989.30
2023-05-25T10:07:29.432Z,989.24
2023-05-25T10:08:29.363Z,989.25
2023-05-25T10:09:29.330Z,989.22
2023-05-25T10:10:29.336Z,989.23
2023-05-25T10:11:29.451Z,989.28
2023-05-25T10:12:29.309Z,989.24
2023-05-25T10:13:29.292Z,989.26
2023-05-25T10:14:30.012Z,989.30
2023-05-25T10:15:29.264Z,989.31
2023-05-25T10:16:29.480Z,989.37
2023-05-25T10:17:29.267Z,989.24
2023-05-25T10:18:29.218Z,989.28
2023-05-25T10:19:29.228Z,989.22
2023-05-25T10:20:31.577Z,989.25
2023-05-25T10:21:29.210Z,989.22
2023-05-25T10:22:29.178Z,989.28
2023-05-25T10:23:29.161Z,989.22
2023-05-25T10:24:29.166Z,989.25
2023-05-25T10:25:29.180Z,989.29
2023-05-25T10:26:29.143Z,989.23
2023-05-25T10:27:29.136Z,989.20
2023-05-25T10:28:29.138Z,989.22
2023-05-25T10:29:29.100Z,989.26
2023-05-25T10:30:29.116Z,989.20
2023-05-25T10:31:29.276Z,989.24
2023-05-25T10:32:29.149Z,989.18
2023-05-25T10:34:29.058Z,989.24
2023-05-25T10:35:30.053Z,989.17
2023-05-25T10:36:29.024Z,989.25
2023-05-25T10:37:29.010Z,989.27
2023-05-25T10:38:29.042Z,989.26
2023-05-25T10:39:29.022Z,989.24
2023-05-25T10:40:28.995Z,989.30
2023-05-25T10:41:29.004Z,989.18
2023-05-25T10:42:28.968Z,989.18
2023-05-25T10:43:28.962Z,989.21
2023-05-25T10:44:28.926Z,989.13
2023-05-25T10:45:28.929Z,989.18
2023-05-25T10:46:28.943Z,989.09
2023-05-25T10:47:28.937Z,989.11
2023-05-25T10:48:28.926Z,989.13
2023-05-25T10:49:28.895Z,989.15
2023-05-25T10:50:28.886Z,989.09
2023-05-25T10:51:28.888Z,989.07
2023-05-25T10:52:28.923Z,989.07
2023-05-25T10:53:28.852Z,989.10
2023-05-25T10:54:28.837Z,989.18
2023-05-25T10:55:28.828Z,989.04
2023-05-25T10:56:28.844Z,989.15
2023-05-25T10:57:28.804Z,989.03
2023-05-25T10:58:28.796Z,989.12
2023-05-25T10:59:28.782Z,989.13
2023-05-25T11:00:28.792Z,989.15
2023-05-25T11:01:28.897Z,989.15
2023-05-25T11:02:28.788Z,989.19
2023-05-25T11:03:28.736Z,989.17
2023-05-25T11:04:28.756Z,989.15
2023-05-25T11:05:28.758Z,989.20
2023-05-25T11:06:28.710Z,989.15
2023-05-25T11:07:28.707Z,989.20
2023-05-25T11:08:28.694Z,989.19
2023-05-25T11:09:28.663Z,989.15
2023-05-25T11:10:28.692Z,989.13
2023-05-25T11:11:28.648Z,989.14
2023-05-25T11:12:28.644Z,989.09
2023-05-25T11:13:28.626Z,989.12
2023-05-25T11:14:28.635Z,989.11
2023-05-25T11:15:28.605Z,989.08
2023-05-25T11:16:28.654Z,989.10
2023-05-25T11:17:28.603Z,989.05
2023-05-25T11:18:28.620Z,989.10
2023-05-25T11:19:28.586Z,989.10
2023-05-25T11:20:28.622Z,988.98
2023-05-25T11:21:28.574Z,989.02
2023-05-25T11:22:28.579Z,989.03
2023-05-25T11:23:28.549Z,988.99
2023-05-25T11:24:28.517Z,989.03
2023-05-25T11:25:28.855Z,989.09
2023-05-25T11:26:28.548Z,989.06
2023-05-25T11:27:28.473Z,988.99
2023-05-25T11:28:28.524Z,989.03
2023-05-25T11:29:28.519Z,989.01
2023-05-25T11:30:28.516Z,989.04
2023-05-25T11:31:28.591Z,989.04
2023-05-25T11:32:28.757Z,988.96
2023-05-25T11:33:28.437Z,988.95
2023-05-25T11:34:28.413Z,989.06
2023-05-25T11:35:28.391Z,988.99
2023-05-25T11:36:28.398Z,989.03
2023-05-25T11:37:28.396Z,989.00
2023-05-25T11:38:28.396Z,989.02
2023-05-25T11:39:28.356Z,989.00
2023-05-25T11:40:28.344Z,988.93
2023-05-25T11:41:28.321Z,988.98
2023-05-25T11:42:28.346Z,988.89
2023-05-25T11:43:28.346Z,988.89
2023-05-25T11:44:28.282Z,988.86
2023-05-25T11:45:28.305Z,988.91
2023-05-25T11:46:28.371Z,988.93
2023-05-25T11:47:29.610Z,988.91
2023-05-25T11:48:28.273Z,988.91
2023-05-25T11:49:28.272Z,988.86
2023-05-25T11:50:28.306Z,988.90
2023-05-25T11:51:28.240Z,988.85
2023-05-25T11:52:28.226Z,988.80
2023-05-25T11:53:28.262Z,988.89
2023-05-25T11:54:28.234Z,988.87
2023-05-25T11:55:28.242Z,988.84
2023-05-25T11:56:35.631Z,988.88
2023-05-25T11:57:29.176Z,988.91
2023-05-25T11:58:28.150Z,988.90
2023-05-25T11:59:29.696Z,988.89
2023-05-25T12:00:28.130Z,988.87
2023-05-25T12:01:28.156Z,988.85
2023-05-25T12:02:28.214Z,988.97
2023-05-25T12:03:28.142Z,988.91
2023-05-25T12:04:28.188Z,988.96
2023-05-25T12:05:28.280Z,988.92
2023-05-25T12:06:28.088Z,988.88
2023-05-25T12:07:28.064Z,988.90
2023-05-25T12:08:28.045Z,988.84
2023-05-25T12:09:28.033Z,988.95
2023-05-25T12:10:28.036Z,988.89
2023-05-25T12:11:28.015Z,988.87
2023-05-25T12:12:27.995Z,988.85
2023-05-25T12:13:28.000Z,988.84
2023-05-25T12:14:28.007Z,988.85
2023-05-25T12:15:27.987Z,988.81
2023-05-25T12:16:28.052Z,988.83
2023-05-25T12:17:27.990Z,988.81
2023-05-25T12:18:27.927Z,988.82
2023-05-25T12:19:27.932Z,988.87
2023-05-25T12:20:27.958Z,988.86
2023-05-25T12:21:27.896Z,988.86
2023-05-25T12:22:27.886Z,988.92
2023-05-25T12:23:28.588Z,988.92
2023-05-25T12:24:27.890Z,988.91
2023-05-25T12:25:38.606Z,988.91
2023-05-25T12:26:28.838Z,988.87
2023-05-25T12:27:27.858Z,988.84
2023-05-25T12:28:27.825Z,988.79
2023-05-25T12:29:27.822Z,988.78